createdAt,value
2022-11-24T00:01:18.956Z,18.95
2022-11-24T00:03:51.982Z,17.85
2022-11-24T00:06:18.702Z,17.60
2022-11-24T00:08:46.622Z,19.40
2022-11-24T00:11:16.086Z,19.65
2022-11-24T00:13:46.360Z,17.52
2022-11-24T00:16:27.747Z,19.52
2022-11-24T00:18:57.102Z,22.48
2022-11-24T00:21:25.503Z,24.23
2022-11-24T00:23:53.020Z,20.58
2022-11-24T00:26:22.762Z,28.85
2022-11-24T00:28:51.783Z,20.80
2022-11-24T00:31:24.872Z,19.80
2022-11-24T00:33:53.975Z,30.23
2022-11-24T00:36:23.421Z,26.30
2022-11-24T00:38:58.636Z,27.42
2022-11-24T00:41:26.431Z,29.27
2022-11-24T00:43:54.051Z,29.92
2022-11-24T00:46:21.480Z,29.23
2022-11-24T00:48:48.629Z,30.50
2022-11-24T00:51:17.820Z,30.65
2022-11-24T00:53:47.479Z,26.85
2022-11-24T00:56:14.765Z,26.27
2022-11-24T00:58:41.798Z,32.05
2022-11-24T01:01:11.947Z,32.40
2022-11-24T01:03:39.900Z,33.30
2022-11-24T01:06:09.037Z,31.83
2022-11-24T01:08:37.972Z,33.45
2022-11-24T01:11:19.459Z,32.17
2022-11-24T01:13:48.955Z,32.15
2022-11-24T01:16:21.887Z,32.53
2022-11-24T01:18:49.604Z,32.00
2022-11-24T01:21:17.373Z,32.55
2022-11-24T01:23:44.600Z,32.50
2022-11-24T01:26:14.646Z,30.23
2022-11-24T01:28:46.566Z,35.78
2022-11-24T01:31:16.111Z,31.10
2022-11-24T01:33:43.281Z,33.70
2022-11-24T01:36:10.415Z,34.90
2022-11-24T01:38:37.457Z,36.15
2022-11-24T01:41:08.472Z,32.05
2022-11-24T01:43:35.935Z,38.17
2022-11-24T01:46:17.229Z,37.28
2022-11-24T01:48:50.575Z,37.15
2022-11-24T01:51:25.292Z,34.65
2022-11-24T01:53:57.924Z,39.17
2022-11-24T01:56:26.461Z,36.47
2022-11-24T01:58:59.078Z,36.40
2022-11-24T02:01:26.173Z,36.90
2022-11-24T02:03:53.755Z,36.28
2022-11-24T02:06:25.146Z,34.05
2022-11-24T02:09:01.069Z,41.80
2022-11-24T02:11:33.564Z,40.30
2022-11-24T02:14:01.078Z,38.20
2022-11-24T02:16:29.007Z,38.38
2022-11-24T02:18:56.398Z,41.22
2022-11-24T02:21:23.349Z,45.55
2022-11-24T02:24:05.211Z,48.38
2022-11-24T02:26:37.640Z,47.40
2022-11-24T02:29:04.702Z,41.75
2022-11-24T02:31:31.664Z,45.05
2022-11-24T02:33:58.698Z,42.88
2022-11-24T02:36:25.448Z,43.05
2022-11-24T02:38:52.463Z,46.28
2022-11-24T02:41:21.825Z,48.83
2022-11-24T02:43:54.923Z,48.58
2022-11-24T02:46:21.830Z,48.92
2022-11-24T02:48:48.961Z,44.25
2022-11-24T02:51:15.833Z,45.63
2022-11-24T02:53:42.869Z,45.50
2022-11-24T02:56:09.672Z,47.45
2022-11-24T02:58:36.958Z,44.95
2022-11-24T03:01:03.930Z,52.88
2022-11-24T03:03:31.433Z,53.70
2022-11-24T03:05:58.190Z,67.93
2022-11-24T03:08:25.194Z,53.88
2022-11-24T03:10:51.942Z,50.60
2022-11-24T03:13:18.934Z,68.38
2022-11-24T03:15:45.764Z,61.90
2022-11-24T03:18:12.830Z,69.20
2022-11-24T03:20:39.542Z,64.47
2022-11-24T03:23:06.584Z,56.53
2022-11-24T03:25:33.361Z,54.88
2022-11-24T03:28:00.437Z,61.40
2022-11-24T03:30:27.529Z,60.92
2022-11-24T03:32:54.585Z,56.92
2022-11-24T03:35:22.091Z,55.92
2022-11-24T03:37:49.316Z,58.95
2022-11-24T03:40:17.947Z,60.63
2022-11-24T03:42:45.030Z,58.58
2022-11-24T03:47:58.777Z,58.13
2022-11-24T03:50:25.494Z,52.42
2022-11-24T03:52:52.496Z,56.83
2022-11-24T03:55:19.223Z,47.80
2022-11-24T03:57:46.278Z,51.20
2022-11-24T04:00:13.365Z,55.03
2022-11-24T04:02:40.450Z,50.88
2022-11-24T04:05:07.634Z,54.60
2022-11-24T04:07:34.735Z,64.47
2022-11-24T04:10:01.633Z,56.47
2022-11-24T04:12:44.239Z,58.17
2022-11-24T04:15:12.715Z,47.17
2022-11-24T04:17:40.006Z,59.40
2022-11-24T04:20:07.742Z,60.42
2022-11-24T04:22:35.742Z,61.55
2022-11-24T04:25:03.110Z,62.28
2022-11-24T04:27:30.476Z,63.22
2022-11-24T04:29:57.252Z,67.20
2022-11-24T04:32:24.485Z,67.03
2022-11-24T04:34:51.222Z,70.28
2022-11-24T04:37:18.233Z,72.47
2022-11-24T04:39:46.294Z,65.13
2022-11-24T04:42:13.499Z,65.75
2022-11-24T04:44:40.313Z,63.70
2022-11-24T04:47:07.411Z,69.85
2022-11-24T04:49:34.147Z,69.15
2022-11-24T04:52:01.148Z,72.07
2022-11-24T04:54:27.889Z,66.07
2022-11-24T04:56:55.086Z,77.60
2022-11-24T04:59:21.823Z,75.82
2022-11-24T05:01:48.881Z,69.75
2022-11-24T05:04:16.219Z,71.68
2022-11-24T05:06:43.318Z,71.35
2022-11-24T05:09:14.573Z,73.95
2022-11-24T05:11:42.042Z,75.07
2022-11-24T05:14:08.799Z,73.95
2022-11-24T05:16:37.268Z,68.07
2022-11-24T05:19:04.116Z,66.40
2022-11-24T05:21:31.183Z,79.97
2022-11-24T05:23:58.073Z,62.40
2022-11-24T05:26:26.080Z,65.95
2022-11-24T05:28:52.959Z,64.82
2022-11-24T05:31:20.102Z,80.35
2022-11-24T05:33:47.012Z,68.95
2022-11-24T05:36:34.089Z,68.70
2022-11-24T05:39:01.230Z,73.07
2022-11-24T05:41:28.428Z,68.57
2022-11-24T05:43:55.256Z,72.70
2022-11-24T05:46:22.393Z,72.03
2022-11-24T05:48:49.502Z,78.10
2022-11-24T05:51:16.881Z,68.53
2022-11-24T05:53:43.585Z,71.00
2022-11-24T05:56:10.655Z,61.17
2022-11-24T05:58:37.441Z,56.40
2022-11-24T06:01:07.622Z,67.65
2022-11-24T06:03:34.393Z,64.53
2022-11-24T06:06:01.784Z,72.70
2022-11-24T06:08:31.255Z,66.90
2022-11-24T06:11:17.608Z,60.58
2022-11-24T06:13:45.894Z,61.88
2022-11-24T06:16:13.324Z,56.03
2022-11-24T06:18:40.346Z,57.58
2022-11-24T06:21:12.055Z,52.80
2022-11-24T06:23:39.689Z,55.00
2022-11-24T06:26:07.063Z,52.35
2022-11-24T06:28:33.853Z,56.00
2022-11-24T06:31:02.418Z,63.80
2022-11-24T06:33:33.722Z,60.17
2022-11-24T06:36:07.157Z,52.92
2022-11-24T06:38:35.572Z,50.17
2022-11-24T06:41:06.269Z,54.60
2022-11-24T06:43:34.333Z,58.90
2022-11-24T06:46:02.277Z,51.88
2022-11-24T06:48:30.102Z,52.10
2022-11-24T06:51:01.727Z,51.65
2022-11-24T06:53:37.678Z,53.65
2022-11-24T06:56:12.086Z,46.70
2022-11-24T06:58:43.014Z,48.70
2022-11-24T07:01:14.073Z,49.70
2022-11-24T07:03:40.837Z,44.80
2022-11-24T07:06:07.912Z,48.28
2022-11-24T07:08:34.715Z,50.47
2022-11-24T07:11:09.716Z,50.60
2022-11-24T07:13:36.899Z,40.80
2022-11-24T07:16:19.480Z,57.50
2022-11-24T07:18:47.890Z,49.45
2022-11-24T07:21:15.449Z,61.30
2022-11-24T07:23:42.626Z,47.45
2022-11-24T07:26:10.527Z,49.65
2022-11-24T07:28:37.824Z,50.55
2022-11-24T07:31:10.447Z,57.25
2022-11-24T07:33:37.558Z,44.88
2022-11-24T07:36:06.554Z,56.50
2022-11-24T07:38:35.266Z,48.72
2022-11-24T07:41:04.521Z,44.47
2022-11-24T07:43:32.487Z,36.88
2022-11-24T07:46:00.232Z,45.92
2022-11-24T07:48:27.448Z,55.70
2022-11-24T07:50:56.300Z,48.70
2022-11-24T07:53:23.230Z,46.70
2022-11-24T07:55:55.045Z,44.00
2022-11-24T07:58:22.765Z,46.55
2022-11-24T08:00:49.952Z,53.38
2022-11-24T08:03:16.821Z,46.45
2022-11-24T08:06:07.660Z,43.60
2022-11-24T08:08:34.386Z,53.95
2022-11-24T08:11:07.131Z,45.30
2022-11-24T08:13:35.107Z,52.95
2022-11-24T08:16:10.731Z,55.25
2022-11-24T08:18:38.681Z,47.78
2022-11-24T08:21:06.968Z,48.05
2022-11-24T08:23:34.222Z,49.30
2022-11-24T08:26:10.717Z,58.95
2022-11-24T08:28:38.292Z,44.08
2022-11-24T08:31:09.223Z,47.60
2022-11-24T08:33:36.545Z,48.38
2022-11-24T08:36:09.475Z,56.33
2022-11-24T08:38:36.748Z,46.17
2022-11-24T08:41:09.782Z,51.50
2022-11-24T08:43:37.018Z,49.33
2022-11-24T08:46:10.415Z,52.72
2022-11-24T08:48:37.568Z,55.75
2022-11-24T08:51:13.307Z,49.22
2022-11-24T08:53:40.669Z,44.90
2022-11-24T08:56:09.079Z,48.10
2022-11-24T08:58:36.864Z,48.65
2022-11-24T09:01:12.139Z,56.53
2022-11-24T09:03:42.366Z,56.08
2022-11-24T09:06:13.949Z,55.85
2022-11-24T09:08:40.842Z,51.38
2022-11-24T09:11:11.017Z,50.45
2022-11-24T09:13:38.714Z,55.42
2022-11-24T09:16:08.597Z,57.80
2022-11-24T09:18:35.394Z,48.80
2022-11-24T09:21:11.577Z,50.53
2022-11-24T09:23:39.194Z,45.15
2022-11-24T09:26:11.945Z,50.50
2022-11-24T09:28:39.046Z,50.67
2022-11-24T09:31:08.726Z,51.67
2022-11-24T09:33:36.744Z,50.97
2022-11-24T09:36:04.575Z,57.55
2022-11-24T09:38:31.862Z,52.30
2022-11-24T09:41:23.221Z,54.40
2022-11-24T09:43:55.677Z,45.30
2022-11-24T09:46:59.911Z,46.60
2022-11-24T09:49:47.309Z,52.67
2022-11-24T09:52:26.791Z,45.40
2022-11-24T09:55:00.891Z,43.60
2022-11-24T09:57:36.950Z,40.55
2022-11-24T10:00:12.416Z,43.95
2022-11-24T10:02:39.999Z,44.10
2022-11-24T10:05:07.332Z,53.45
2022-11-24T10:08:02.636Z,38.88
2022-11-24T10:10:42.516Z,42.92
2022-11-24T10:13:35.249Z,43.80
2022-11-24T10:16:21.915Z,45.70
2022-11-24T10:19:22.108Z,44.25
2022-11-24T10:22:01.186Z,44.45
2022-11-24T10:25:08.367Z,45.17
2022-11-24T10:27:44.145Z,48.97
2022-11-24T10:30:21.644Z,43.00
2022-11-24T10:32:53.041Z,50.33
2022-11-24T10:35:24.448Z,42.35
2022-11-24T10:38:00.626Z,45.28
2022-11-24T10:40:56.416Z,48.35
2022-11-24T10:43:27.071Z,37.58
2022-11-24T10:45:59.715Z,57.30
2022-11-24T10:48:31.145Z,43.03
2022-11-24T10:51:17.212Z,43.33
2022-11-24T10:53:46.108Z,39.22
2022-11-24T10:56:13.226Z,40.38
2022-11-24T10:58:40.108Z,41.30
2022-11-24T11:01:12.902Z,40.20
2022-11-24T11:03:50.741Z,41.03
2022-11-24T11:06:28.711Z,35.35
2022-11-24T11:09:24.626Z,45.08
2022-11-24T11:11:53.794Z,37.60
2022-11-24T11:14:32.983Z,35.67
2022-11-24T11:17:00.125Z,37.08
2022-11-24T11:19:54.157Z,38.47
2022-11-24T11:22:31.140Z,36.53
2022-11-24T11:25:04.030Z,29.95
2022-11-24T11:27:31.090Z,33.47
2022-11-24T11:36:16.254Z,30.95
2022-11-24T11:38:45.048Z,42.63
2022-11-24T11:41:21.694Z,34.92
2022-11-24T11:43:56.453Z,36.25
2022-11-24T11:46:28.934Z,36.10
2022-11-24T11:48:56.050Z,35.05
2022-11-24T11:51:57.895Z,35.40
2022-11-24T11:54:57.187Z,32.92
2022-11-24T11:57:44.145Z,29.77
2022-11-24T12:00:24.340Z,35.47
2022-11-24T12:03:03.703Z,26.95
2022-11-24T12:05:33.911Z,29.10
2022-11-24T12:08:25.964Z,29.27
2022-11-24T12:11:22.051Z,31.35
2022-11-24T12:13:48.758Z,29.77
2022-11-24T12:16:25.148Z,28.55
2022-11-24T12:19:18.564Z,26.48
2022-11-24T12:22:02.249Z,31.88
2022-11-24T12:24:55.199Z,25.60
2022-11-24T12:27:32.452Z,26.88
2022-11-24T12:30:06.001Z,26.55
2022-11-24T12:35:30.157Z,24.73
2022-11-24T12:38:21.990Z,20.48
2022-11-24T12:41:43.258Z,28.42
2022-11-24T12:44:48.848Z,28.70
2022-11-24T12:47:22.106Z,28.15
2022-11-24T12:50:07.309Z,23.02
2022-11-24T12:52:39.856Z,23.02
2022-11-24T12:55:16.747Z,26.77
2022-11-24T12:57:52.502Z,24.67
2022-11-24T13:00:29.404Z,28.38
2022-11-24T13:03:17.788Z,23.20
2022-11-24T13:06:03.136Z,26.05
2022-11-24T13:08:31.147Z,21.42
2022-11-24T13:11:21.185Z,20.23
2022-11-24T13:14:05.679Z,26.67
2022-11-24T13:16:37.088Z,29.75
2022-11-24T13:19:33.727Z,21.27
2022-11-24T13:22:06.592Z,28.38
2022-11-24T13:24:39.279Z,21.88
2022-11-24T13:27:15.913Z,25.33
2022-11-24T13:29:47.023Z,25.58
2022-11-24T13:32:14.637Z,24.00
2022-11-24T13:34:42.765Z,23.75
2022-11-24T13:37:40.096Z,24.42
2022-11-24T13:40:13.399Z,21.25
2022-11-24T13:45:41.058Z,18.73
2022-11-24T13:48:20.976Z,26.23
2022-11-24T13:50:51.448Z,20.05
2022-11-24T13:53:40.195Z,23.63
2022-11-24T13:56:12.990Z,24.48
2022-11-24T13:58:40.026Z,29.20
2022-11-24T14:01:24.933Z,26.92
2022-11-24T14:07:00.094Z,23.70
2022-11-24T14:09:32.457Z,22.20
2022-11-24T14:12:01.728Z,24.45
2022-11-24T14:14:29.076Z,19.30
2022-11-24T14:17:14.213Z,29.45
2022-11-24T14:19:42.789Z,24.05
2022-11-24T14:22:16.948Z,23.48
2022-11-24T14:24:56.502Z,23.73
2022-11-24T14:27:32.522Z,23.15
2022-11-24T14:30:20.856Z,24.48
2022-11-24T14:33:02.101Z,29.23
2022-11-24T14:35:31.922Z,26.50
2022-11-24T14:38:01.730Z,23.00
2022-11-24T14:40:42.373Z,27.98
2022-11-24T14:43:24.750Z,25.08
2022-11-24T14:46:09.349Z,23.63
2022-11-24T14:48:38.723Z,29.88
2022-11-24T14:51:11.325Z,22.10
2022-11-24T14:53:43.176Z,27.25
2022-11-24T14:56:35.422Z,21.90
2022-11-24T14:59:03.053Z,34.10
2022-11-24T15:01:34.029Z,22.00
2022-11-24T15:04:38.904Z,22.48
2022-11-24T15:07:20.525Z,24.77
2022-11-24T15:09:47.281Z,28.27
2022-11-24T15:12:48.115Z,24.75
2022-11-24T15:15:15.079Z,26.67
2022-11-24T15:17:52.258Z,23.95
2022-11-24T15:20:44.547Z,26.50
2022-11-24T15:23:20.825Z,27.85
2022-11-24T15:25:48.276Z,26.17
2022-11-24T15:28:15.497Z,24.52
2022-11-24T15:30:42.425Z,29.92
2022-11-24T15:33:17.632Z,27.63
2022-11-24T15:35:45.480Z,29.27
2022-11-24T15:38:13.118Z,27.35
2022-11-24T15:40:42.122Z,25.58
2022-11-24T15:43:19.590Z,33.67
2022-11-24T15:45:46.539Z,22.65
2022-11-24T15:48:17.992Z,25.02
2022-11-24T15:50:47.161Z,31.65
2022-11-24T15:53:23.293Z,31.23
2022-11-24T15:55:50.593Z,24.70
2022-11-24T15:58:17.890Z,27.70
2022-11-24T16:00:45.755Z,28.90
2022-11-24T16:03:45.055Z,28.45
2022-11-24T16:05:59.876Z,30.38
2022-11-24T16:08:26.988Z,23.85
2022-11-24T16:10:53.820Z,26.70
2022-11-24T16:13:20.843Z,32.70
2022-11-24T16:15:47.639Z,30.70
2022-11-24T16:18:14.830Z,26.73
2022-11-24T16:20:41.614Z,29.15
2022-11-24T16:23:11.210Z,26.75
2022-11-24T16:25:38.169Z,28.92
2022-11-24T16:28:05.273Z,26.77
2022-11-24T16:30:32.098Z,24.92
2022-11-24T16:32:59.143Z,35.95
2022-11-24T16:35:25.952Z,27.55
2022-11-24T16:37:53.113Z,34.47
2022-11-24T16:40:20.151Z,27.40
2022-11-24T16:42:47.243Z,32.55
2022-11-24T16:45:14.122Z,23.85
2022-11-24T16:47:42.145Z,29.67
2022-11-24T16:50:10.844Z,30.38
2022-11-24T16:52:38.764Z,28.08
2022-11-24T16:55:06.669Z,27.17
2022-11-24T16:57:33.998Z,26.08
2022-11-24T17:00:00.920Z,27.08
2022-11-24T17:02:28.247Z,27.70
2022-11-24T17:04:55.255Z,30.83
2022-11-24T17:07:22.491Z,24.20
2022-11-24T17:09:49.422Z,32.10
2022-11-24T17:12:16.411Z,25.33
2022-11-24T17:14:52.651Z,24.60
2022-11-24T17:17:30.312Z,28.00
2022-11-24T17:19:57.084Z,27.27
2022-11-24T17:22:24.198Z,22.20
2022-11-24T17:24:51.007Z,30.33
2022-11-24T17:27:18.059Z,26.02
2022-11-24T17:29:44.927Z,27.40
2022-11-24T17:32:12.295Z,29.80
2022-11-24T17:34:39.188Z,32.17
2022-11-24T17:37:06.230Z,29.20
2022-11-24T17:39:33.121Z,27.10
2022-11-24T17:42:00.329Z,24.48
2022-11-24T17:44:27.578Z,28.90
2022-11-24T17:46:54.649Z,30.25
2022-11-24T17:49:21.545Z,38.63
2022-11-24T17:51:50.574Z,30.05
2022-11-24T17:54:45.273Z,25.88
2022-11-24T17:57:05.269Z,25.38
2022-11-24T17:59:32.057Z,27.10
2022-11-24T18:01:59.233Z,21.60
2022-11-24T18:04:26.037Z,22.83
2022-11-24T18:06:53.117Z,28.15
2022-11-24T18:09:19.943Z,29.08
2022-11-24T18:11:47.856Z,23.00
2022-11-24T18:14:14.766Z,28.20
2022-11-24T18:16:42.005Z,23.75
2022-11-24T18:19:11.035Z,24.27
2022-11-24T18:21:40.354Z,27.40
2022-11-24T18:24:11.732Z,31.70
2022-11-24T18:26:40.233Z,29.20
2022-11-24T18:29:07.974Z,25.58
2022-11-24T18:31:36.198Z,25.73
2022-11-24T18:34:05.233Z,24.20
2022-11-24T18:36:33.142Z,30.42
2022-11-24T18:39:08.239Z,29.67
2022-11-24T18:41:36.093Z,29.45
2022-11-24T18:44:07.648Z,27.52
2022-11-24T18:46:34.981Z,30.08
2022-11-24T18:49:01.770Z,27.77
2022-11-24T18:51:29.157Z,26.98
2022-11-24T18:53:59.307Z,27.67
2022-11-24T18:56:26.666Z,27.15
2022-11-24T18:58:55.471Z,28.25
2022-11-24T19:01:26.081Z,26.65
2022-11-24T19:03:55.804Z,29.05
2022-11-24T19:06:34.547Z,34.88
2022-11-24T19:09:08.937Z,34.60
2022-11-24T19:11:38.938Z,30.92
2022-11-24T19:14:08.427Z,27.70
2022-11-24T19:16:36.051Z,34.38
2022-11-24T19:19:03.940Z,31.05
2022-11-24T19:21:33.635Z,33.15
2022-11-24T19:24:04.970Z,34.00
2022-11-24T19:26:35.218Z,26.95
2022-11-24T19:29:03.121Z,31.73
2022-11-24T19:31:34.443Z,32.97
2022-11-24T19:34:05.861Z,29.77
2022-11-24T19:36:32.995Z,33.05
2022-11-24T19:38:59.909Z,30.63
2022-11-24T19:41:29.314Z,35.42
2022-11-24T19:43:56.743Z,34.05
2022-11-24T19:46:29.318Z,32.70
2022-11-24T19:48:59.977Z,33.88
2022-11-24T19:51:32.340Z,27.98
2022-11-24T19:54:00.245Z,32.88
2022-11-24T19:56:30.447Z,28.23
2022-11-24T19:58:57.845Z,28.88
2022-11-24T20:01:30.487Z,30.55
2022-11-24T20:04:02.584Z,29.65
2022-11-24T20:06:32.783Z,30.65
2022-11-24T20:09:00.709Z,34.70
2022-11-24T20:11:28.583Z,33.20
2022-11-24T20:13:56.583Z,37.53
2022-11-24T20:16:26.753Z,35.08
2022-11-24T20:18:56.278Z,33.28
2022-11-24T20:21:31.538Z,31.55
2022-11-24T20:24:01.241Z,34.45
2022-11-24T20:26:31.866Z,32.25
2022-11-24T20:28:59.614Z,30.25
2022-11-24T20:31:32.233Z,35.65
2022-11-24T20:34:00.960Z,28.95
2022-11-24T20:36:30.293Z,39.30
2022-11-24T20:38:59.834Z,30.55
2022-11-24T20:41:29.265Z,32.13
2022-11-24T20:43:58.095Z,35.63
2022-11-24T20:46:30.494Z,34.10
2022-11-24T20:48:58.182Z,30.48
2022-11-24T20:51:30.966Z,28.58
2022-11-24T20:54:00.327Z,32.80
2022-11-24T20:56:30.028Z,36.95
2022-11-24T20:58:57.269Z,38.72
2022-11-24T21:01:28.140Z,34.75
2022-11-24T21:03:57.768Z,37.08
2022-11-24T21:06:26.294Z,37.30
2022-11-24T21:08:53.198Z,30.20
2022-11-24T21:11:21.879Z,36.05
2022-11-24T21:13:49.797Z,33.70
2022-11-24T21:16:46.157Z,37.45
2022-11-24T21:19:14.855Z,39.13
2022-11-24T21:21:42.932Z,33.53
2022-11-24T21:24:12.822Z,38.70
2022-11-24T21:26:41.169Z,37.22
2022-11-24T21:29:08.559Z,42.72
2022-11-24T21:31:37.426Z,35.00
2022-11-24T21:34:05.417Z,31.67
2022-11-24T21:36:34.803Z,32.83
2022-11-24T21:39:03.107Z,40.08
2022-11-24T21:41:33.204Z,31.17
2022-11-24T21:44:00.467Z,34.13
2022-11-24T21:46:29.245Z,36.97
2022-11-24T21:48:56.048Z,38.40
2022-11-24T21:51:23.108Z,30.02
2022-11-24T21:53:49.884Z,38.85
2022-11-24T21:56:19.446Z,33.92
2022-11-24T21:58:50.522Z,29.85
2022-11-24T22:01:19.392Z,31.35
2022-11-24T22:03:46.401Z,32.17
2022-11-24T22:06:14.199Z,34.85
2022-11-24T22:08:41.109Z,32.65
2022-11-24T22:11:23.315Z,35.92
2022-11-24T22:13:51.175Z,38.22
2022-11-24T22:16:23.052Z,40.92
2022-11-24T22:18:51.669Z,30.13
2022-11-24T22:21:24.327Z,37.45
2022-11-24T22:23:54.885Z,38.10
2022-11-24T22:26:23.919Z,35.92
2022-11-24T22:28:50.917Z,35.58
2022-11-24T22:31:23.941Z,35.53
2022-11-24T22:33:51.991Z,34.45
2022-11-24T22:36:23.121Z,34.75
2022-11-24T22:38:58.270Z,33.88
2022-11-24T22:41:25.831Z,32.25
2022-11-24T22:43:53.887Z,34.50
2022-11-24T22:46:26.674Z,30.27
2022-11-24T22:48:54.929Z,29.50
2022-11-24T22:51:26.458Z,32.83
2022-11-24T22:53:58.650Z,30.13
2022-11-24T22:56:27.921Z,30.75
2022-11-24T22:58:54.711Z,32.20
2022-11-24T23:01:24.316Z,35.40
2022-11-24T23:03:56.058Z,34.63
2022-11-24T23:06:25.436Z,30.48
2022-11-24T23:08:52.830Z,30.05
2022-11-24T23:11:27.397Z,36.35
2022-11-24T23:14:00.455Z,27.35
2022-11-24T23:16:28.979Z,35.70
2022-11-24T23:18:56.511Z,25.08
2022-11-24T23:21:35.109Z,27.65
2022-11-24T23:24:04.190Z,29.67
2022-11-24T23:26:37.137Z,31.95
2022-11-24T23:29:05.318Z,31.45
2022-11-24T23:31:33.229Z,29.67
2022-11-24T23:34:02.496Z,31.50
2022-11-24T23:36:30.367Z,25.13
2022-11-24T23:39:02.095Z,32.30
2022-11-24T23:41:30.364Z,31.40
2022-11-24T23:43:57.236Z,26.35
2022-11-24T23:46:25.847Z,29.42
2022-11-24T23:48:53.696Z,31.65
2022-11-24T23:51:24.116Z,36.47
2022-11-24T23:53:51.639Z,30.75
2022-11-24T23:56:21.563Z,29.30
2022-11-24T23:58:49.032Z,32.17
